Time;durP1;ratioP1;P1;durP2;ratioP2;P2;SDS_P1;SDS_P2;PMS_P1;PMS_P2;Temp;Humidity;BMP_temperature;BMP_pressure;BME280_temperature;BME280_humidity;BME280_pressure;Samples;Min_cycle;Max_cycle;Signal;HPM_P1;HPM_P2
2021/07/27 00:00:34;;;;;;;11.82;9.05;;;691.50;2432.00;;;;;;5068231;28;20040;-70
2021/07/27 00:03:01;;;;;;;12.77;8.18;;;691.50;2432.00;;;;;;5069576;28;20020;-70
2021/07/27 00:05:31;;;;;;;9.43;7.57;;;691.40;2432.00;;;;;;5067786;28;20523;-70
2021/07/27 00:07:56;;;;;;;11.52;8.07;;;691.40;2432.00;;;;;;5069326;28;20024;-70
2021/07/27 00:10:27;;;;;;;13.82;8.52;;;691.40;2432.00;;;;;;5068564;28;20103;-70
2021/07/27 00:12:53;;;;;;;10.38;8.20;;;691.50;2432.00;;;;;;5069709;28;20134;-70
2021/07/27 00:15:18;;;;;;;20.17;9.40;;;691.40;2432.00;;;;;;5064025;28;20544;-71
2021/07/27 00:17:44;;;;;;;11.25;7.65;;;691.40;2432.00;;;;;;5066210;28;20372;-70
2021/07/27 00:20:10;;;;;;;10.13;8.30;;;691.40;2432.00;;;;;;5067514;28;20055;-70
2021/07/27 00:22:43;;;;;;;14.30;8.68;;;691.40;2432.00;;;;;;5077993;28;20102;-70
2021/07/27 00:25:09;;;;;;;17.40;9.68;;;691.40;2432.00;;;;;;5061948;28;20021;-70
2021/07/27 00:27:35;;;;;;;13.45;8.32;;;691.40;2432.00;;;;;;5069376;28;20060;-70
2021/07/27 00:30:09;;;;;;;10.85;8.23;;;691.40;2432.00;;;;;;5076375;28;20033;-70
2021/07/27 00:32:39;;;;;;;13.02;8.18;;;691.40;2432.00;;;;;;5069505;28;20025;-71
2021/07/27 00:35:05;;;;;;;12.85;9.30;;;691.50;2432.00;;;;;;5068785;28;20036;-71
2021/07/27 00:37:33;;;;;;;17.02;9.63;;;691.50;2432.00;;;;;;5066497;28;20024;-71
2021/07/27 00:40:00;;;;;;;15.15;9.10;;;691.50;2432.00;;;;;;5064051;28;20039;-70
2021/07/27 00:42:26;;;;;;;12.15;7.70;;;691.50;2432.00;;;;;;5066866;28;20024;-70
2021/07/27 00:44:52;;;;;;;13.93;8.27;;;691.50;2432.00;;;;;;5075509;28;20028;-70
2021/07/27 00:47:18;;;;;;;14.18;9.00;;;691.60;2432.00;;;;;;5066072;28;20020;-70
2021/07/27 00:49:44;;;;;;;14.30;8.60;;;691.60;2432.00;;;;;;5064011;28;20368;-70
2021/07/27 00:52:10;;;;;;;13.18;7.70;;;691.60;2432.00;;;;;;5057647;28;20027;-70
2021/07/27 00:54:37;;;;;;;12.48;8.98;;;691.60;2432.00;;;;;;5068935;28;20021;-70
2021/07/27 00:57:04;;;;;;;13.77;8.55;;;691.60;2432.00;;;;;;5068386;28;20028;-70
2021/07/27 00:59:30;;;;;;;9.50;8.50;;;691.50;2432.00;;;;;;5068159;28;20033;-70
2021/07/27 01:01:56;;;;;;;9.98;7.85;;;691.60;2432.00;;;;;;5066191;28;20043;-70
2021/07/27 01:04:22;;;;;;;12.98;9.50;;;691.50;2432.00;;;;;;5060036;28;20105;-70
2021/07/27 01:06:48;;;;;;;13.57;8.65;;;691.50;2432.00;;;;;;5066200;28;20031;-70
2021/07/27 01:09:14;;;;;;;14.75;8.52;;;691.50;2432.00;;;;;;5069036;28;20033;-70
2021/07/27 01:11:44;;;;;;;13.80;8.45;;;691.50;2432.00;;;;;;5068271;28;20074;-70
2021/07/27 01:14:10;;;;;;;13.82;8.85;;;691.50;2432.00;;;;;;5062951;28;20016;-70
2021/07/27 01:16:36;;;;;;;13.95;9.75;;;691.50;2432.00;;;;;;5063419;28;20119;-70
2021/07/27 01:43:18;;;;;;;17.10;8.90;;;691.40;2432.00;;;;;;5073333;28;20027;-71
2021/07/27 01:45:44;;;;;;;14.88;8.20;;;691.30;2432.00;;;;;;5062243;28;20026;-71
2021/07/27 01:48:10;;;;;;;12.20;7.65;;;691.30;2432.00;;;;;;5065345;28;20020;-71
2021/07/27 01:50:36;;;;;;;14.52;8.75;;;691.30;2432.00;;;;;;5070833;28;20490;-71
2021/07/27 01:53:05;;;;;;;14.40;8.90;;;691.30;2432.00;;;;;;5068206;28;20095;-71
2021/07/27 01:55:34;;;;;;;9.70;8.07;;;691.20;2432.00;;;;;;5071670;28;20020;-71
2021/07/27 01:58:03;;;;;;;16.33;8.48;;;691.20;2432.00;;;;;;5072462;28;20033;-71
2021/07/27 02:00:31;;;;;;;13.25;8.25;;;691.20;2432.00;;;;;;5056559;28;20036;-70
2021/07/27 02:02:56;;;;;;;15.57;8.27;;;691.20;2432.00;;;;;;5061378;28;20024;-70
2021/07/27 02:05:22;;;;;;;11.07;7.90;;;691.20;2432.00;;;;;;5072467;28;20021;-70
2021/07/27 02:07:55;;;;;;;12.57;8.10;;;691.20;2432.00;;;;;;5066493;28;20070;-70
2021/07/27 02:10:21;;;;;;;11.05;7.85;;;691.20;2432.00;;;;;;5067452;28;20017;-70
2021/07/27 02:12:52;;;;;;;15.57;9.23;;;691.20;2432.00;;;;;;5068627;28;20217;-70
2021/07/27 02:15:19;;;;;;;13.45;8.43;;;691.20;2432.00;;;;;;5070130;28;20132;-70
2021/07/27 02:17:47;;;;;;;12.20;7.78;;;691.20;2432.00;;;;;;5072079;28;20040;-70
2021/07/27 02:20:13;;;;;;;13.70;7.78;;;691.20;2432.00;;;;;;5071648;28;20119;-70
2021/07/27 02:22:39;;;;;;;9.75;7.68;;;691.20;2432.00;;;;;;5069858;28;20031;-70
2021/07/27 02:25:07;;;;;;;11.85;7.72;;;691.20;2432.00;;;;;;5070410;28;20383;-70
2021/07/27 02:27:33;;;;;;;9.40;8.27;;;691.20;2432.00;;;;;;5070555;28;20040;-71
2021/07/27 02:30:00;;;;;;;13.15;8.32;;;666.50;2432.00;;;;;;5068076;28;20032;-70
2021/07/27 02:32:26;;;;;;;11.30;8.30;;;666.50;2432.00;;;;;;5071244;28;20025;-70
2021/07/27 02:34:51;;;;;;;11.80;8.38;;;666.50;2432.00;;;;;;5060885;28;20029;-70
2021/07/27 02:37:17;;;;;;;14.52;7.68;;;666.50;2432.00;;;;;;5064984;28;20022;-70
2021/07/27 02:39:43;;;;;;;15.18;9.20;;;666.50;2432.00;;;;;;5065038;28;20029;-71
2021/07/27 02:42:09;;;;;;;12.55;8.68;;;666.50;2432.00;;;;;;5065669;28;20831;-71
2021/07/27 02:44:35;;;;;;;12.18;8.18;;;666.50;2432.00;;;;;;5063655;28;20017;-71
2021/07/27 02:47:05;;;;;;;13.80;9.55;;;666.50;2432.00;;;;;;5064329;28;20024;-71
2021/07/27 02:49:30;;;;;;;14.18;9.98;;;666.40;2432.00;;;;;;5063827;28;20056;-70
2021/07/27 02:51:57;;;;;;;12.82;8.05;;;666.40;2432.00;;;;;;5067004;28;20099;-71
2021/07/27 02:54:23;;;;;;;16.33;9.20;;;666.40;2432.00;;;;;;5065508;28;20025;-70
2021/07/27 02:56:49;;;;;;;10.50;7.72;;;666.30;2432.00;;;;;;5070005;28;20032;-70
2021/07/27 02:59:14;;;;;;;11.45;7.97;;;666.30;2432.00;;;;;;5071071;28;20032;-71
2021/07/27 03:01:40;;;;;;;11.60;7.85;;;666.30;2432.00;;;;;;5059712;28;20028;-70
2021/07/27 03:04:06;;;;;;;12.20;8.68;;;666.30;2432.00;;;;;;5052039;28;20017;-71
2021/07/27 03:06:32;;;;;;;19.48;10.50;;;666.20;2432.00;;;;;;5051873;28;20033;-71
2021/07/27 03:11:24;;;;;;;15.25;7.90;;;666.20;2432.00;;;;;;5066551;28;20026;-71
2021/07/27 03:13:54;;;;;;;12.35;8.52;;;666.10;2432.00;;;;;;5064005;28;20052;-70
2021/07/27 03:16:22;;;;;;;11.25;8.13;;;666.10;2432.00;;;;;;5071447;28;20088;-70
2021/07/27 03:18:52;;;;;;;13.88;8.77;;;666.10;2432.00;;;;;;5075855;28;20083;-70
2021/07/27 03:21:21;;;;;;;11.70;8.23;;;666.00;2432.00;;;;;;5069329;28;20029;-70
2021/07/27 03:23:47;;;;;;;11.70;7.63;;;665.90;2432.00;;;;;;5070621;28;20021;-70
2021/07/27 03:26:13;;;;;;;17.08;8.57;;;665.90;2432.00;;;;;;5069767;28;20446;-70
2021/07/27 03:28:40;;;;;;;18.65;9.18;;;665.80;2432.00;;;;;;5071023;28;20048;-71
2021/07/27 03:31:06;;;;;;;16.40;8.85;;;665.90;2432.00;;;;;;5068599;28;20032;-71
2021/07/27 03:33:32;;;;;;;17.70;8.68;;;665.80;2432.00;;;;;;5070147;28;20352;-71
2021/07/27 03:35:58;;;;;;;12.55;8.52;;;665.80;2432.00;;;;;;5069785;28;20078;-70
2021/07/27 03:38:24;;;;;;;17.67;8.77;;;665.80;2432.00;;;;;;5068364;28;20013;-71
2021/07/27 03:40:49;;;;;;;13.77;8.63;;;665.80;2432.00;;;;;;5070000;28;20456;-70
2021/07/27 03:43:15;;;;;;;15.95;9.05;;;665.80;2432.00;;;;;;5065980;28;20442;-70
2021/07/27 03:45:41;;;;;;;17.48;9.07;;;665.80;2432.00;;;;;;5069683;28;20713;-70
2021/07/27 03:48:06;;;;;;;16.60;9.10;;;665.80;2432.00;;;;;;5062971;28;20094;-70
2021/07/27 03:50:32;;;;;;;16.17;9.50;;;665.80;2432.00;;;;;;5067080;28;20463;-71
2021/07/27 03:52:58;;;;;;;17.15;9.65;;;665.80;2432.00;;;;;;5064757;28;20048;-71
2021/07/27 03:55:24;;;;;;;15.45;8.32;;;665.70;2432.00;;;;;;5067679;28;20025;-71
2021/07/27 03:57:53;;;;;;;11.40;8.55;;;665.70;2432.00;;;;;;5068984;28;20028;-71
2021/07/27 04:00:19;;;;;;;17.92;10.02;;;665.80;2432.00;;;;;;5066687;28;20029;-71
2021/07/27 04:02:44;;;;;;;14.63;8.88;;;665.80;2432.00;;;;;;5067375;28;20084;-70
2021/07/27 04:05:10;;;;;;;12.77;8.40;;;665.80;2432.00;;;;;;5069057;28;20025;-71
2021/07/27 04:07:36;;;;;;;14.10;7.68;;;665.80;2432.00;;;;;;5061443;28;20109;-71
2021/07/27 04:10:05;;;;;;;16.38;9.60;;;665.80;2432.00;;;;;;5056343;28;20096;-70
2021/07/27 04:12:30;;;;;;;13.93;8.57;;;665.80;2432.00;;;;;;5064931;28;20037;-71
2021/07/27 04:14:56;;;;;;;13.50;8.85;;;665.80;2432.00;;;;;;5068783;28;20028;-70
2021/07/27 04:17:22;;;;;;;12.38;8.35;;;665.80;2432.00;;;;;;5070463;28;20406;-70
2021/07/27 04:19:48;;;;;;;15.25;8.90;;;665.80;2432.00;;;;;;5064029;28;20025;-71
2021/07/27 04:22:14;;;;;;;16.10;9.52;;;665.80;2432.00;;;;;;5057975;28;20062;-71
2021/07/27 04:24:41;;;;;;;15.38;9.68;;;665.80;2432.00;;;;;;5056748;28;20032;-71
2021/07/27 04:27:06;;;;;;;13.52;8.65;;;665.90;2432.00;;;;;;5062351;28;20084;-70
2021/07/27 04:29:33;;;;;;;18.55;9.48;;;665.90;2432.00;;;;;;5056103;28;20494;-71
2021/07/27 04:31:59;;;;;;;22.08;10.63;;;666.00;2432.00;;;;;;5056553;28;20367;-71
2021/07/27 04:34:25;;;;;;;22.98;9.15;;;666.10;2432.00;;;;;;5062686;28;20017;-71
2021/07/27 04:36:54;;;;;;;20.42;10.63;;;666.20;2432.00;;;;;;5066571;28;20531;-71
2021/07/27 04:39:20;;;;;;;16.50;9.23;;;666.20;2432.00;;;;;;5064734;28;20182;-71
2021/07/27 04:41:46;;;;;;;15.07;10.40;;;666.30;2432.00;;;;;;5062736;28;20630;-71
2021/07/27 04:44:11;;;;;;;15.75;10.45;;;666.40;2432.00;;;;;;5062420;28;20158;-70
2021/07/27 04:46:37;;;;;;;22.55;10.65;;;666.50;2432.00;;;;;;5067810;28;20025;-71
2021/07/27 04:49:03;;;;;;;16.40;10.65;;;691.20;2432.00;;;;;;5068330;28;20024;-71
2021/07/27 04:51:29;;;;;;;19.13;9.93;;;691.30;2432.00;;;;;;5059319;28;20032;-70
2021/07/27 04:54:04;;;;;;;19.20;9.63;;;691.40;2432.00;;;;;;5067334;28;20028;-71
2021/07/27 04:56:34;;;;;;;15.87;9.90;;;691.50;2432.00;;;;;;5063118;28;20025;-71
2021/07/27 04:59:00;;;;;;;15.90;9.43;;;691.60;2432.00;;;;;;5067823;28;20115;-71
2021/07/27 05:01:26;;;;;;;20.98;9.82;;;691.50;2432.00;;;;;;5066095;28;20041;-71
2021/07/27 05:03:52;;;;;;;15.35;9.90;;;691.50;2432.00;;;;;;5062254;28;20025;-70
2021/07/27 05:06:21;;;;;;;14.23;9.48;;;691.90;2432.00;;;;;;5074019;28;20029;-71
2021/07/27 05:08:47;;;;;;;12.27;8.95;;;692.00;2432.00;;;;;;5072120;28;20016;-71
2021/07/27 05:11:13;;;;;;;20.17;10.32;;;716.90;2432.00;;;;;;5064915;28;20028;-71
2021/07/27 05:13:39;;;;;;;16.50;10.23;;;717.00;2432.00;;;;;;5059567;28;20017;-71
2021/07/27 05:16:12;;;;;;;18.98;11.88;;;717.10;2432.00;;;;;;5077863;28;20483;-71
2021/07/27 05:18:38;;;;;;;16.30;9.35;;;717.60;2432.00;;;;;;5068041;28;20047;-71
2021/07/27 05:21:03;;;;;;;17.88;9.63;;;717.50;2432.00;;;;;;5066783;28;20035;-71
2021/07/27 05:23:29;;;;;;;17.88;9.50;;;742.40;2432.00;;;;;;5067151;28;20028;-71
2021/07/27 05:25:55;;;;;;;12.48;9.43;;;742.40;2432.00;;;;;;5067400;28;20156;-71
2021/07/27 05:28:21;;;;;;;15.45;9.00;;;742.60;2432.00;;;;;;5077038;28;20485;-71
2021/07/27 05:30:47;;;;;;;15.32;9.93;;;742.70;2432.00;;;;;;5064965;28;20029;-71
2021/07/27 05:33:12;;;;;;;15.10;9.05;;;742.70;2432.00;;;;;;5078738;28;20013;-71
2021/07/27 05:35:38;;;;;;;14.38;9.38;;;742.90;2432.00;;;;;;5067262;28;20099;-71
2021/07/27 05:38:04;;;;;;;14.65;9.90;;;743.00;2432.00;;;;;;5064954;28;20448;-71
2021/07/27 05:40:32;;;;;;;11.65;8.90;;;743.10;2432.00;;;;;;5068009;28;20032;-71
2021/07/27 05:42:59;;;;;;;18.52;9.45;;;743.10;2432.00;;;;;;5079540;28;20498;-71
2021/07/27 05:45:25;;;;;;;14.77;9.15;;;743.30;2432.00;;;;;;5060627;28;20036;-71
2021/07/27 05:47:52;;;;;;;13.98;9.85;;;768.10;2432.00;;;;;;5071602;28;20032;-71
2021/07/27 05:50:19;;;;;;;18.15;10.20;;;768.20;2432.00;;;;;;5065807;28;20040;-71
2021/07/27 05:52:45;;;;;;;15.05;9.15;;;768.20;2432.00;;;;;;5055712;28;20025;-71
2021/07/27 05:55:11;;;;;;;15.80;9.25;;;768.30;2432.00;;;;;;5069132;28;20013;-71
2021/07/27 05:57:37;;;;;;;13.35;9.20;;;768.50;2432.00;;;;;;5066922;28;20048;-71
2021/07/27 06:00:04;;;;;;;13.02;8.98;;;768.70;2432.00;;;;;;5067435;28;20028;-71
2021/07/27 06:02:30;;;;;;;14.13;8.85;;;768.80;2432.00;;;;;;5067838;28;20364;-72
2021/07/27 06:04:56;;;;;;;17.52;10.10;;;793.60;2432.00;;;;;;5070841;28;20051;-72
2021/07/27 06:07:21;;;;;;;14.43;9.45;;;768.70;2432.00;;;;;;5067563;28;20050;-72
2021/07/27 06:09:47;;;;;;;15.27;8.95;;;793.60;2432.00;;;;;;5067777;28;20029;-71
2021/07/27 06:12:13;;;;;;;18.33;9.02;;;793.70;2432.00;;;;;;5067666;28;20024;-72
2021/07/27 06:14:39;;;;;;;22.05;9.52;;;793.90;2432.00;;;;;;5066661;28;20027;-71
2021/07/27 06:17:05;;;;;;;19.67;10.38;;;794.10;2432.00;;;;;;5063352;28;20116;-71
2021/07/27 06:19:30;;;;;;;14.43;9.93;;;794.20;2432.00;;;;;;5068718;28;20033;-71
2021/07/27 06:21:56;;;;;;;13.88;9.10;;;794.40;2432.00;;;;;;5071043;28;20088;-71
2021/07/27 06:24:22;;;;;;;15.85;9.02;;;794.40;2432.00;;;;;;5069285;28;20032;-71
2021/07/27 06:26:47;;;;;;;14.88;9.60;;;819.40;2432.00;;;;;;5066111;28;20501;-71
2021/07/27 06:29:13;;;;;;;15.80;10.18;;;819.40;2406.40;;;;;;5083252;28;20094;-71
2021/07/27 06:31:39;;;;;;;18.52;10.00;;;819.60;2406.40;;;;;;5067709;28;20060;-71
2021/07/27 06:34:05;;;;;;;13.77;8.27;;;819.70;2380.80;;;;;;5057729;28;20017;-71
2021/07/27 06:36:31;;;;;;;14.60;8.45;;;819.90;2355.20;;;;;;5057937;28;20451;-71
2021/07/27 06:38:57;;;;;;;13.45;10.00;;;819.90;2355.20;;;;;;5072125;28;20028;-72
2021/07/27 06:41:23;;;;;;;14.60;9.20;;;844.80;2355.20;;;;;;5058425;28;20087;-72
2021/07/27 06:43:49;;;;;;;15.50;9.18;;;844.80;2355.20;;;;;;5066220;28;20025;-72
2021/07/27 06:46:15;;;;;;;18.65;9.77;;;845.00;2355.20;;;;;;5052036;28;20032;-72
2021/07/27 06:48:43;;;;;;;12.63;10.57;;;845.10;2329.60;;;;;;5064732;28;20024;-71
2021/07/27 06:51:16;;;;;;;21.13;13.07;;;845.30;2329.60;;;;;;5068123;28;20055;-72
2021/07/27 06:53:43;;;;;;;16.50;10.65;;;845.50;2304.00;;;;;;5070289;28;20021;-72
2021/07/27 06:56:09;;;;;;;16.38;10.32;;;870.40;2278.40;;;;;;5069656;28;20036;-72
2021/07/27 06:58:36;;;;;;;18.38;9.98;;;870.50;2278.40;;;;;;5062367;28;20078;-72
2021/07/27 07:01:06;;;;;;;20.27;12.40;;;870.40;2278.40;;;;;;5065413;28;20028;-72
2021/07/27 07:03:32;;;;;;;15.13;12.35;;;870.80;2278.40;;;;;;5067883;28;20021;-72
2021/07/27 07:05:58;;;;;;;14.93;10.38;;;871.10;2227.20;;;;;;5069497;28;20025;-71
2021/07/27 07:08:24;;;;;;;16.83;10.68;;;871.10;2227.20;;;;;;5061910;28;20071;-71
2021/07/27 07:10:55;;;;;;;14.63;11.10;;;896.10;2201.60;;;;;;5066218;28;20119;-72
2021/07/27 07:13:21;;;;;;;17.48;8.80;;;896.10;2176.00;;;;;;5067986;28;20008;-72
2021/07/27 07:15:47;;;;;;;13.55;9.63;;;896.20;2176.00;;;;;;5061336;28;20035;-72
2021/07/27 07:18:13;;;;;;;14.93;9.77;;;896.50;2150.40;;;;;;5065742;28;20028;-72
2021/07/27 07:20:38;;;;;;;11.52;9.23;;;896.60;2124.80;;;;;;5070343;28;20074;-72
2021/07/27 07:23:04;;;;;;;18.58;11.90;;;896.90;2099.20;;;;;;5074405;28;20500;-71
2021/07/27 07:25:30;;;;;;;17.15;9.77;;;922.00;2099.20;;;;;;5065887;28;20408;-72
2021/07/27 07:27:55;;;;;;;17.65;10.38;;;922.40;2022.40;;;;;;5069104;28;20449;-72
2021/07/27 07:30:21;;;;;;;15.55;10.18;;;947.20;2022.40;;;;;;5063542;28;20021;-72
2021/07/27 07:32:47;;;;;;;17.20;10.15;;;947.20;1996.80;;;;;;5063704;28;20403;-72
2021/07/27 07:35:13;;;;;;;22.17;10.15;;;947.40;1971.20;;;;;;5070755;28;20103;-72
2021/07/27 07:37:39;;;;;;;14.82;9.65;;;947.30;1971.20;;;;;;5070867;28;20082;-72
2021/07/27 07:40:05;;;;;;;17.05;9.52;;;947.20;1971.20;;;;;;5070011;28;20032;-72
2021/07/27 07:42:31;;;;;;;15.35;9.73;;;947.20;1971.20;;;;;;5070749;28;20420;-72
2021/07/27 07:44:56;;;;;;;15.82;9.77;;;947.20;1920.00;;;;;;5069072;28;20930;-71
2021/07/27 07:47:22;;;;;;;14.65;10.02;;;947.20;1920.00;;;;;;5085236;28;20017;-71
2021/07/27 07:49:48;;;;;;;17.60;10.88;;;922.50;1945.60;;;;;;5070100;28;20506;-71
2021/07/27 07:52:14;;;;;;;15.25;10.25;;;922.50;1920.00;;;;;;5064162;28;20399;-72
2021/07/27 07:54:40;;;;;;;19.00;10.07;;;922.50;1945.60;;;;;;5070764;28;20031;-72
2021/07/27 07:57:05;;;;;;;19.30;10.32;;;947.20;1894.40;;;;;;5056309;28;20024;-71
2021/07/27 07:59:31;;;;;;;17.58;9.95;;;947.60;1894.40;;;;;;5070531;28;20032;-71
2021/07/27 08:01:59;;;;;;;15.23;10.00;;;948.10;1843.20;;;;;;5084222;28;20431;-71
2021/07/27 08:04:25;;;;;;;18.67;9.82;;;973.30;1843.20;;;;;;5069928;28;20473;-71
2021/07/27 08:06:52;;;;;;;24.92;11.40;;;973.30;1766.40;;;;;;5070870;28;20068;-72
2021/07/27 08:09:17;;;;;;;18.00;9.13;;;973.70;1766.40;;;;;;5061718;28;20035;-72
2021/07/27 08:11:43;;;;;;;15.52;9.48;;;998.40;1792.00;;;;;;5057035;28;20371;-72
2021/07/27 08:14:10;;;;;;;12.25;9.00;;;998.40;1792.00;;;;;;5068052;28;20027;-72
2021/07/27 08:16:36;;;;;;;12.98;8.77;;;973.60;1715.20;;;;;;5066593;28;20059;-72
2021/07/27 08:19:03;;;;;;;18.27;10.30;;;998.40;1766.40;;;;;;5066676;28;20527;-72
2021/07/27 08:21:29;;;;;;;16.88;9.93;;;973.50;1689.60;;;;;;5068369;28;20497;-72
2021/07/27 08:23:55;;;;;;;18.15;10.40;;;998.40;1715.20;;;;;;5058723;28;20123;-72
2021/07/27 08:26:21;;;;;;;21.05;11.18;;;973.70;1715.20;;;;;;5065192;28;20040;-72
2021/07/27 08:28:47;;;;;;;15.05;10.43;;;998.60;1715.20;;;;;;5064166;28;20072;-72
2021/07/27 08:31:16;;;;;;;18.05;10.70;;;998.90;1689.60;;;;;;5056528;28;20025;-71
2021/07/27 08:33:42;;;;;;;17.27;9.00;;;1024.10;1664.00;;;;;;5054901;28;20052;-72
2021/07/27 08:36:09;;;;;;;13.27;8.13;;;1024.70;1612.80;;;;;;5068664;28;20039;-72
2021/07/27 08:38:35;;;;;;;15.80;9.05;;;1024.80;1536.00;;;;;;5068212;28;20031;-72
2021/07/27 08:41:03;;;;;;;15.07;7.80;;;1024.90;1510.40;;;;;;5063395;28;20480;-72
2021/07/27 08:43:29;;;;;;;13.73;9.40;;;1024.40;1459.20;;;;;;5060020;28;20033;-72
2021/07/27 08:45:55;;;;;;;18.60;8.95;;;1024.60;1484.80;;;;;;5068619;28;20387;-72
2021/07/27 08:48:23;;;;;;;17.45;11.00;;;1024.80;1484.80;;;;;;5061958;28;20024;-72
2021/07/27 08:50:50;;;;;;;16.30;8.50;;;1024.90;1459.20;;;;;;5064837;28;20498;-72
2021/07/27 08:53:17;;;;;;;15.25;7.85;;;1049.70;1459.20;;;;;;5059454;28;20068;-72
2021/07/27 08:55:43;;;;;;;15.93;7.85;;;1049.80;1408.00;;;;;;5068608;28;20099;-72
2021/07/27 08:58:08;;;;;;;11.35;8.13;;;1049.90;1408.00;;;;;;5062639;28;20115;-72
2021/07/27 09:00:34;;;;;;;26.48;10.43;;;1049.60;1382.40;;;;;;5064896;28;20123;-72
2021/07/27 09:03:11;;;;;;;13.48;6.65;;;1049.90;1356.80;;;;;;5064561;28;20036;-72
2021/07/27 09:05:38;;;;;;;14.13;7.97;;;1049.90;1305.60;;;;;;5071164;28;20024;-72
2021/07/27 09:08:06;;;;;;;15.90;8.32;;;1050.50;1305.60;;;;;;5061643;28;20090;-72
2021/07/27 09:10:33;;;;;;;26.40;7.70;;;1050.50;1305.60;;;;;;5064563;28;20041;-72
2021/07/27 09:13:01;;;;;;;14.80;6.85;;;1075.20;1280.00;;;;;;5067107;28;20078;-72
2021/07/27 09:15:30;;;;;;;14.75;7.47;;;1075.40;1254.40;;;;;;5078540;28;20037;-72
2021/07/27 09:17:58;;;;;;;16.25;9.15;;;1075.50;1254.40;;;;;;5067013;28;20099;-72
2021/07/27 09:20:28;;;;;;;16.13;8.57;;;1075.60;1254.40;;;;;;5066378;28;20076;-73
2021/07/27 09:22:54;;;;;;;13.73;8.05;;;1075.50;1228.80;;;;;;5053422;28;20047;-72
2021/07/27 09:25:25;;;;;;;15.57;7.65;;;1075.80;1228.80;;;;;;5051636;28;20851;-72
2021/07/27 09:28:05;;;;;;;13.85;7.10;;;1075.80;1203.20;;;;;;5056052;28;20056;-72
2021/07/27 09:30:33;;;;;;;15.88;7.53;;;1075.30;1203.20;;;;;;5058988;28;20040;-72
2021/07/27 09:32:59;;;;;;;12.90;8.13;;;1075.60;1203.20;;;;;;5062973;28;20031;-72
2021/07/27 09:35:27;;;;;;;17.40;7.90;;;1075.80;1203.20;;;;;;5083827;28;20020;-72
2021/07/27 09:38:13;;;;;;;12.40;6.32;;;1075.80;1177.60;;;;;;5068179;28;20025;-72
2021/07/27 09:40:49;;;;;;;25.58;7.38;;;1075.50;1177.60;;;;;;5054186;28;20448;-73
2021/07/27 09:43:17;;;;;;;13.80;7.50;;;1075.30;1203.20;;;;;;5064003;28;20811;-73
2021/07/27 09:45:46;;;;;;;14.43;7.40;;;1075.60;1203.20;;;;;;5058270;28;20029;-72
2021/07/27 09:48:14;;;;;;;12.63;7.13;;;1075.80;1152.00;;;;;;5051967;28;20017;-72
2021/07/27 09:50:40;;;;;;;14.75;6.70;;;1076.00;1152.00;;;;;;5065249;28;20032;-72
2021/07/27 09:53:06;;;;;;;13.30;6.18;;;1101.00;1177.60;;;;;;5065399;28;20024;-72
2021/07/27 09:55:32;;;;;;;16.25;6.40;;;1101.30;1126.40;;;;;;5068721;28;20397;-72
2021/07/27 09:58:00;;;;;;;13.38;7.50;;;1101.10;1126.40;;;;;;5064183;28;20021;-72
2021/07/27 10:00:26;;;;;;;12.73;6.00;;;1101.30;1100.80;;;;;;5059177;28;20550;-72
2021/07/27 10:02:52;;;;;;;16.35;6.97;;;1101.40;1126.40;;;;;;5069895;28;20111;-72
2021/07/27 10:05:26;;;;;;;12.07;6.07;;;1101.10;1100.80;;;;;;5066174;28;20025;-71
2021/07/27 10:07:57;;;;;;;18.30;6.95;;;1101.60;1075.20;;;;;;5068783;28;20020;-72
2021/07/27 10:10:40;;;;;;;14.80;7.38;;;1126.80;1075.20;;;;;;5062860;28;20039;-72
2021/07/27 10:13:12;;;;;;;16.10;7.28;;;1127.00;1100.80;;;;;;5069338;28;20479;-72
2021/07/27 10:15:40;;;;;;;13.93;7.18;;;1126.70;1100.80;;;;;;5059629;28;20029;-72
2021/07/27 10:18:06;;;;;;;17.50;6.97;;;1126.70;1075.20;;;;;;5056211;28;20020;-72
2021/07/27 10:20:32;;;;;;;10.15;5.38;;;1126.80;1049.60;;;;;;5057836;28;20025;-72
2021/07/27 10:22:57;;;;;;;16.58;5.95;;;1126.50;1075.20;;;;;;5061262;28;20032;-72
2021/07/27 10:25:26;;;;;;;15.95;7.38;;;1127.00;1049.60;;;;;;5062877;28;20036;-72
2021/07/27 10:27:53;;;;;;;17.25;7.15;;;1127.00;1049.60;;;;;;5061332;28;20468;-72
2021/07/27 10:30:39;;;;;;;16.60;6.65;;;1127.20;1049.60;;;;;;5069141;28;20375;-72
2021/07/27 10:33:05;;;;;;;18.42;6.57;;;1152.10;1024.00;;;;;;5076487;28;20024;-72
2021/07/27 10:35:33;;;;;;;14.35;5.80;;;1152.10;1024.00;;;;;;5078076;28;20028;-72
2021/07/27 10:38:11;;;;;;;13.60;7.07;;;1152.60;1024.00;;;;;;5080301;28;20082;-72
2021/07/27 10:40:37;;;;;;;17.77;7.63;;;1152.10;1024.00;;;;;;5057742;28;20028;-72
2021/07/27 10:43:05;;;;;;;11.75;5.72;;;1127.30;1049.60;;;;;;5075714;28;20032;-72
2021/07/27 10:45:30;;;;;;;16.48;6.18;;;1127.30;1049.60;;;;;;5070379;28;20112;-72
2021/07/27 10:47:57;;;;;;;14.18;6.38;;;1152.00;1024.00;;;;;;5061712;28;20439;-71
2021/07/27 10:50:28;;;;;;;15.32;6.07;;;1127.20;1049.60;;;;;;5078400;28;20025;-72
2021/07/27 10:53:13;;;;;;;13.63;6.05;;;1152.10;1024.00;;;;;;5072476;28;20500;-72
2021/07/27 10:55:43;;;;;;;17.50;6.72;;;1152.10;1024.00;;;;;;5073258;28;20027;-72
2021/07/27 10:58:18;;;;;;;13.20;6.35;;;1152.30;1024.00;;;;;;5059843;28;20021;-72
2021/07/27 11:00:44;;;;;;;11.75;6.57;;;1152.60;998.40;;;;;;5067710;28;20033;-72
2021/07/27 11:03:10;;;;;;;13.20;7.15;;;1152.80;1024.00;;;;;;5067446;28;20110;-72
2021/07/27 11:05:36;;;;;;;14.68;6.78;;;1177.70;998.40;;;;;;5076572;28;20107;-72
2021/07/27 11:08:03;;;;;;;11.63;6.65;;;1152.30;1024.00;;;;;;5071190;28;20131;-72
2021/07/27 11:10:33;;;;;;;18.65;7.18;;;1152.50;1024.00;;;;;;5072294;28;20090;-72
2021/07/27 11:12:59;;;;;;;15.95;6.25;;;1152.80;1024.00;;;;;;5070034;28;20040;-72
2021/07/27 11:15:26;;;;;;;13.85;7.82;;;1152.30;998.40;;;;;;5069759;28;20066;-72
2021/07/27 11:17:57;;;;;;;18.00;6.63;;;1127.10;1024.00;;;;;;5063207;28;20013;-72
2021/07/27 11:20:38;;;;;;;13.60;6.28;;;1127.00;1024.00;;;;;;5059332;28;20422;-72
2021/07/27 11:23:06;;;;;;;19.85;7.35;;;1127.30;998.40;;;;;;5070501;28;20387;-72
2021/07/27 11:25:32;;;;;;;15.32;6.40;;;1152.00;998.40;;;;;;5067402;28;20016;-72
2021/07/27 11:28:09;;;;;;;9.68;5.20;;;1127.30;1024.00;;;;;;5061206;28;20308;-72
2021/07/27 11:30:37;;;;;;;15.65;6.03;;;1152.50;998.40;;;;;;5061366;28;20040;-72
2021/07/27 11:33:13;;;;;;;16.55;7.38;;;1152.60;1024.00;;;;;;5066671;28;20039;-73
2021/07/27 11:35:47;;;;;;;15.23;6.70;;;1152.60;1024.00;;;;;;5069618;28;20391;-73
2021/07/27 11:38:25;;;;;;;14.07;7.05;;;1152.70;998.40;;;;;;5063115;28;20016;-73
2021/07/27 11:41:06;;;;;;;10.30;5.95;;;1152.80;998.40;;;;;;5070439;28;20036;-72
2021/07/27 11:43:36;;;;;;;12.00;6.13;;;1178.10;998.40;;;;;;5070040;28;20024;-72
2021/07/27 11:46:17;;;;;;;11.63;5.88;;;1178.40;972.80;;;;;;5071139;28;20024;-72
2021/07/27 11:48:53;;;;;;;8.63;5.82;;;1177.70;972.80;;;;;;5073302;28;20502;-72
2021/07/27 11:51:35;;;;;;;13.57;6.28;;;1178.10;947.20;;;;;;5064106;28;20032;-72
2021/07/27 11:54:01;;;;;;;12.02;7.03;;;1178.10;947.20;;;;;;5062528;28;20029;-72
2021/07/27 11:56:27;;;;;;;15.18;5.82;;;1178.20;947.20;;;;;;5067768;28;20025;-71
2021/07/27 11:59:04;;;;;;;19.25;6.55;;;1177.60;972.80;;;;;;5067694;28;20020;-71
2021/07/27 12:01:41;;;;;;;12.23;5.88;;;1177.80;972.80;;;;;;5069193;28;20071;-71
2021/07/27 12:04:07;;;;;;;11.40;6.50;;;1178.10;947.20;;;;;;5068112;28;20755;-71
2021/07/27 12:06:53;;;;;;;15.82;6.45;;;1178.20;947.20;;;;;;5076776;28;20123;-71
2021/07/27 12:09:22;;;;;;;12.10;6.95;;;1203.70;947.20;;;;;;5061388;28;20093;-73
2021/07/27 12:11:49;;;;;;;17.38;6.40;;;1178.20;947.20;;;;;;5072373;28;20375;-72
2021/07/27 12:14:15;;;;;;;12.30;5.85;;;1177.90;921.60;;;;;;5066086;28;20032;-72
2021/07/27 12:16:41;;;;;;;16.27;6.55;;;1177.90;896.00;;;;;;5065118;28;20028;-71
2021/07/27 12:19:09;;;;;;;12.43;6.22;;;1178.30;921.60;;;;;;5069261;28;20013;-71
2021/07/27 12:21:35;;;;;;;11.20;5.70;;;1203.30;921.60;;;;;;5070312;28;20020;-71
2021/07/27 12:24:00;;;;;;;13.48;5.78;;;1177.90;921.60;;;;;;5071269;28;20537;-73
2021/07/27 12:26:26;;;;;;;17.30;6.05;;;1152.20;972.80;;;;;;5064164;28;20028;-73
2021/07/27 12:28:52;;;;;;;10.60;6.18;;;1152.00;947.20;;;;;;5069377;28;20049;-72
2021/07/27 12:31:18;;;;;;;10.98;5.47;;;1152.60;947.20;;;;;;5069639;28;20028;-71
2021/07/27 12:33:46;;;;;;;14.82;5.78;;;1152.10;947.20;;;;;;5071551;28;20040;-72